createdAt,value
2018-07-05T00:02:30.220Z,5.45
2018-07-05T00:07:45.847Z,5.20
2018-07-05T00:13:00.845Z,5.20
2018-07-05T00:18:16.859Z,5.90
2018-07-05T00:23:31.499Z,4.53
2018-07-05T00:28:46.376Z,5.53
2018-07-05T00:34:03.278Z,5.80
2018-07-05T00:39:18.440Z,5.40
2018-07-05T00:44:33.179Z,5.50
2018-07-05T00:49:41.944Z,4.90
2018-07-05T00:54:58.078Z,5.10
2018-07-05T01:00:13.184Z,5.60
2018-07-05T01:05:28.085Z,5.00
2018-07-05T01:10:42.814Z,4.70
2018-07-05T01:15:57.902Z,5.70
2018-07-05T01:21:12.726Z,5.10
2018-07-05T01:26:28.467Z,5.80
2018-07-05T01:31:43.284Z,5.20
2018-07-05T01:36:58.072Z,5.67
2018-07-05T01:42:16.595Z,5.60
2018-07-05T01:47:31.424Z,5.50
2018-07-05T01:52:46.356Z,6.00
2018-07-05T01:58:03.910Z,5.80
2018-07-05T02:03:19.013Z,6.00
2018-07-05T02:08:33.884Z,5.90
2018-07-05T02:13:48.791Z,5.50
2018-07-05T02:19:03.740Z,6.33
2018-07-05T02:24:18.460Z,5.60
2018-07-05T02:29:33.291Z,6.00
2018-07-05T02:34:48.521Z,6.80
2018-07-05T02:40:03.206Z,6.50
2018-07-05T02:45:17.943Z,6.12
2018-07-05T02:50:32.719Z,6.00
2018-07-05T02:55:45.667Z,6.63
2018-07-05T03:01:00.306Z,6.67
2018-07-05T03:06:16.725Z,7.37
2018-07-05T03:11:31.420Z,6.20
2018-07-05T03:16:45.947Z,7.10
2018-07-05T03:22:01.996Z,8.40
2018-07-05T03:27:17.325Z,8.23
2018-07-05T03:32:32.282Z,8.10
2018-07-05T03:37:51.516Z,8.05
2018-07-05T03:43:08.074Z,8.13
2018-07-05T03:48:23.893Z,7.60
2018-07-05T03:53:43.494Z,7.70
2018-07-05T03:59:01.337Z,7.70
2018-07-05T04:04:21.179Z,8.20
2018-07-05T04:09:37.016Z,7.07
2018-07-05T04:14:51.792Z,7.83
2018-07-05T04:20:06.768Z,7.00
2018-07-05T04:25:21.525Z,6.77
2018-07-05T04:30:36.488Z,6.70
2018-07-05T04:35:51.124Z,6.70
2018-07-05T04:41:05.943Z,6.17
2018-07-05T04:46:20.689Z,7.30
2018-07-05T04:51:37.035Z,7.50
2018-07-05T04:56:53.243Z,7.90
2018-07-05T05:02:11.103Z,7.80
2018-07-05T05:07:30.494Z,6.10
2018-07-05T05:12:45.417Z,6.70
2018-07-05T05:18:02.322Z,7.43
2018-07-05T05:23:17.337Z,6.95
2018-07-05T05:28:32.322Z,7.37
2018-07-05T05:33:47.182Z,8.03
2018-07-05T05:39:02.111Z,8.23
2018-07-05T05:44:16.705Z,8.10
2018-07-05T05:49:31.622Z,8.50
2018-07-05T05:54:50.144Z,7.20
2018-07-05T06:00:05.029Z,7.33
2018-07-05T06:05:19.956Z,7.90
2018-07-05T06:10:34.764Z,7.10
2018-07-05T06:15:49.544Z,6.30
2018-07-05T06:21:04.270Z,5.72
2018-07-05T06:26:19.080Z,5.75
2018-07-05T06:31:33.957Z,5.57
2018-07-05T06:36:48.812Z,5.50
2018-07-05T06:42:03.825Z,4.90
2018-07-05T06:47:18.615Z,4.90
2018-07-05T06:52:33.448Z,4.70
2018-07-05T06:57:48.244Z,4.65
2018-07-05T07:03:02.916Z,4.57
2018-07-05T07:08:17.806Z,4.90
2018-07-05T07:13:33.657Z,4.90
2018-07-05T07:18:49.264Z,4.33
2018-07-05T07:24:06.237Z,4.07
2018-07-05T07:29:21.018Z,4.40
2018-07-05T07:34:35.712Z,4.00
2018-07-05T07:39:50.431Z,3.80
2018-07-05T07:44:52.768Z,3.62
2018-07-05T07:49:55.101Z,4.08
2018-07-05T07:54:57.418Z,4.97
2018-07-05T07:59:59.814Z,4.45
2018-07-05T08:05:02.127Z,3.60
2018-07-05T08:10:04.542Z,3.53
2018-07-05T08:15:07.864Z,3.40
2018-07-05T08:20:10.208Z,3.50
2018-07-05T08:25:12.661Z,2.80
2018-07-05T08:30:15.129Z,3.50
2018-07-05T08:35:18.513Z,3.15
2018-07-05T08:40:21.102Z,3.40
2018-07-05T08:45:23.483Z,3.67
2018-07-05T08:50:25.967Z,3.80
2018-07-05T08:55:28.416Z,3.80
2018-07-05T09:00:31.277Z,3.90
2018-07-05T09:05:33.701Z,3.80
2018-07-05T09:10:36.087Z,3.90
2018-07-05T09:15:38.422Z,3.90
2018-07-05T09:20:42.213Z,3.52
2018-07-05T09:25:44.585Z,3.90
2018-07-05T09:30:47.023Z,3.67
2018-07-05T09:35:52.962Z,3.60
2018-07-05T09:40:55.301Z,3.33
2018-07-05T09:45:57.646Z,3.40
2018-07-05T09:51:00.038Z,3.97
2018-07-05T09:56:04.348Z,3.90
2018-07-05T10:01:09.293Z,4.00
2018-07-05T10:06:11.595Z,4.40
2018-07-05T10:11:13.964Z,4.70
2018-07-05T10:16:16.336Z,4.67
2018-07-05T10:21:29.343Z,4.30
2018-07-05T10:26:31.912Z,4.40
2018-07-05T10:42:45.744Z,3.58
2018-07-05T10:59:07.217Z,4.00
2018-07-05T11:04:22.079Z,4.20
2018-07-05T11:09:37.611Z,4.07
2018-07-05T11:14:56.203Z,4.25
2018-07-05T11:20:11.079Z,4.15
2018-07-05T11:25:27.307Z,3.70
2018-07-05T11:30:42.225Z,3.30
2018-07-05T11:35:56.876Z,3.30
2018-07-05T11:41:12.218Z,3.60
2018-07-05T11:46:27.010Z,3.50
2018-07-05T11:51:41.640Z,4.08
2018-07-05T11:56:56.488Z,4.12
2018-07-05T12:02:11.287Z,4.70
2018-07-05T12:07:25.900Z,4.40
2018-07-05T12:12:40.733Z,4.70
2018-07-05T12:17:56.904Z,4.70
2018-07-05T12:23:11.834Z,4.70
2018-07-05T12:28:26.862Z,5.90
2018-07-05T12:33:41.702Z,5.90
2018-07-05T12:38:56.526Z,5.60
2018-07-05T12:44:11.356Z,4.62
2018-07-05T12:49:26.289Z,5.50
2018-07-05T12:54:42.395Z,4.00
2018-07-05T12:59:57.260Z,3.50
2018-07-05T13:05:12.233Z,3.55
2018-07-05T13:10:27.465Z,3.20
2018-07-05T13:15:44.316Z,2.93
2018-07-05T13:20:59.348Z,2.60
2018-07-05T13:26:14.915Z,2.90
2018-07-05T13:31:34.100Z,3.20
2018-07-05T13:36:49.068Z,2.70
2018-07-05T13:47:32.290Z,2.80
2018-07-05T13:52:46.979Z,3.00
2018-07-05T13:58:01.850Z,3.30
2018-07-05T14:03:16.974Z,3.00
2018-07-05T14:08:32.005Z,3.20
2018-07-05T14:13:47.055Z,3.10
2018-07-05T14:19:05.112Z,3.00
2018-07-05T14:24:25.767Z,3.70
2018-07-05T14:35:14.921Z,2.80
2018-07-05T14:40:30.929Z,3.00
2018-07-05T14:45:47.123Z,3.20
2018-07-05T14:51:01.882Z,2.85
2018-07-05T14:56:17.713Z,3.07
2018-07-05T15:01:32.714Z,3.05
2018-07-05T15:06:47.579Z,3.10
2018-07-05T15:12:02.239Z,3.30
2018-07-05T15:17:18.185Z,3.40
2018-07-05T15:22:33.908Z,3.50
2018-07-05T15:27:48.610Z,3.70
2018-07-05T15:33:03.231Z,3.90
2018-07-05T15:38:18.028Z,3.72
2018-07-05T15:43:35.405Z,4.30
2018-07-05T15:48:50.079Z,4.47
2018-07-05T15:54:04.977Z,4.90
2018-07-05T15:59:19.722Z,4.70
2018-07-05T16:04:34.466Z,4.50
2018-07-05T16:09:50.352Z,4.83
2018-07-05T16:15:05.125Z,5.00
2018-07-05T16:20:20.951Z,5.42
2018-07-05T16:25:35.738Z,5.20
2018-07-05T16:30:51.370Z,5.12
2018-07-05T16:36:06.083Z,4.90
2018-07-05T16:41:21.063Z,5.00
2018-07-05T16:46:35.857Z,5.58
2018-07-05T16:51:50.675Z,6.03
2018-07-05T16:57:07.365Z,5.37
2018-07-05T17:02:24.840Z,5.90
2018-07-05T17:07:39.747Z,6.10
2018-07-05T17:12:56.266Z,5.80
2018-07-05T17:18:12.870Z,6.00
2018-07-05T17:23:27.650Z,5.40
2018-07-05T17:28:44.623Z,5.40
2018-07-05T17:33:59.250Z,6.00
2018-07-05T17:39:14.050Z,5.83
2018-07-05T17:44:29.882Z,4.30
2018-07-05T17:49:44.714Z,4.40
2018-07-05T17:55:03.047Z,5.10
2018-07-05T18:00:21.964Z,4.80
2018-07-05T18:05:36.677Z,5.05
2018-07-05T18:10:51.503Z,5.58
2018-07-05T18:16:06.487Z,4.60
2018-07-05T18:21:21.386Z,5.37
2018-07-05T18:26:36.226Z,5.60
2018-07-05T18:31:45.926Z,6.17
2018-07-05T18:37:01.516Z,5.60
2018-07-05T18:42:16.178Z,5.00
2018-07-05T18:47:30.807Z,4.97
2018-07-05T18:52:45.715Z,5.35
2018-07-05T18:58:00.702Z,5.87
2018-07-05T19:03:15.491Z,5.20
2018-07-05T19:08:32.121Z,5.60
2018-07-05T19:13:47.106Z,5.53
2018-07-05T19:19:02.440Z,5.50
2018-07-05T19:24:20.303Z,5.22
2018-07-05T19:29:35.124Z,5.70
2018-07-05T19:34:50.774Z,5.60
2018-07-05T19:40:06.053Z,5.28
2018-07-05T19:45:21.474Z,5.47
2018-07-05T19:50:38.076Z,5.70
2018-07-05T19:55:53.098Z,5.90
2018-07-05T20:01:15.221Z,5.30
2018-07-05T20:06:32.099Z,5.13
2018-07-05T20:11:53.131Z,5.20
2018-07-05T20:17:09.250Z,4.90
2018-07-05T20:22:25.933Z,5.50
2018-07-05T20:27:43.488Z,4.80
2018-07-05T20:34:05.929Z,5.30
2018-07-05T20:39:20.864Z,5.00
2018-07-05T20:44:35.852Z,4.92
2018-07-05T20:49:51.939Z,4.95
2018-07-05T20:55:06.586Z,5.08
2018-07-05T21:00:22.265Z,4.97
2018-07-05T21:05:39.635Z,4.60
2018-07-05T21:10:55.518Z,5.05
2018-07-05T21:16:12.481Z,4.83
2018-07-05T21:21:27.327Z,4.70
2018-07-05T21:26:42.119Z,5.00
2018-07-05T21:31:56.989Z,4.00
2018-07-05T21:37:11.879Z,4.50
2018-07-05T21:42:26.846Z,4.77
2018-07-05T21:47:41.886Z,4.90
2018-07-05T21:52:56.599Z,4.50
2018-07-05T21:58:12.521Z,4.90
2018-07-05T22:03:27.811Z,4.43
2018-07-05T22:08:42.512Z,4.12
2018-07-05T22:13:57.462Z,4.60
2018-07-05T22:19:17.716Z,3.90
2018-07-05T22:24:38.069Z,3.93
2018-07-05T22:29:58.319Z,4.50
2018-07-05T22:35:13.231Z,4.30
2018-07-05T22:40:30.162Z,3.90
2018-07-05T22:50:02.880Z,4.30
2018-07-05T22:55:18.759Z,4.00
2018-07-05T23:00:33.532Z,4.50
2018-07-05T23:05:49.123Z,4.40
2018-07-05T23:11:03.868Z,4.00
2018-07-05T23:16:19.087Z,4.40
2018-07-05T23:21:33.896Z,4.40
2018-07-05T23:26:49.558Z,4.30
2018-07-05T23:32:04.487Z,4.70
2018-07-05T23:37:19.335Z,4.40
2018-07-05T23:42:33.854Z,4.50
2018-07-05T23:47:48.488Z,4.50
2018-07-05T23:53:03.173Z,4.62
2018-07-05T23:58:19.991Z,4.10
